Sturbridge, Massachusetts
Current Conditions -  °F | °C
As of 1:54 AM on Sunday 23 Nov 2014 (Local Time) from KORH Reporting Station
Broken Clouds Broken Clouds  
Wind Chill: 30°   Ceiling: 11000
Heat Index: 40°   Visibility: 10mi
Dew Point: 22°   Wind: 23mph
Humidity: 49%   Direction: 250°WSW
Pressure: 30.05"   Gusts: NA
Location:  42.1°N, 72.06°W
Report Text: KORH 230654Z AUTO 25020KT 10SM SCT100 BKN110 04/M06 A3005 RMK AO2 PK WND 25029/0644 SLP185 T00441056
Loading
Personal Weather Stations






























Interactive Weather Map New forecast layout! Learn more

10-Day Weather Forecast

Advertisements
Track Severe Weather on mobile